createdAt,value
2023-02-28T00:02:54.383Z,6.25
2023-02-28T00:05:56.500Z,6.60
2023-02-28T00:08:58.887Z,7.05
2023-02-28T00:12:04.668Z,7.57
2023-02-28T00:15:08.928Z,6.82
2023-02-28T00:18:11.002Z,6.18
2023-02-28T00:21:13.754Z,6.55
2023-02-28T00:24:17.091Z,6.30
2023-02-28T00:27:19.190Z,6.38
2023-02-28T00:30:23.792Z,6.85
2023-02-28T00:33:25.880Z,6.18
2023-02-28T00:36:29.749Z,5.28
2023-02-28T00:39:32.483Z,5.88
2023-02-28T00:42:35.988Z,6.55
2023-02-28T00:45:38.043Z,6.38
2023-02-28T00:48:40.146Z,7.05
2023-02-28T00:51:44.184Z,5.63
2023-02-28T00:54:46.207Z,6.45
2023-02-28T00:57:50.390Z,6.55
2023-02-28T01:00:53.843Z,6.32
2023-02-28T01:03:56.068Z,6.25
2023-02-28T01:06:58.280Z,7.20
2023-02-28T01:10:00.553Z,5.93
2023-02-28T01:13:02.580Z,5.65
2023-02-28T01:16:05.005Z,6.63
2023-02-28T01:19:08.919Z,6.90
2023-02-28T01:22:11.217Z,5.63
2023-02-28T01:25:14.037Z,6.15
2023-02-28T01:28:16.145Z,6.95
2023-02-28T01:31:19.379Z,6.68
2023-02-28T01:34:21.475Z,7.20
2023-02-28T01:37:23.506Z,5.47
2023-02-28T01:40:25.521Z,5.10
2023-02-28T01:43:50.491Z,5.57
2023-02-28T01:46:52.527Z,5.50
2023-02-28T01:49:54.933Z,5.95
2023-02-28T01:53:01.108Z,6.20
2023-02-28T01:56:10.094Z,5.28
2023-02-28T01:59:16.082Z,5.82
2023-02-28T02:02:20.321Z,4.95
2023-02-28T02:05:29.686Z,5.28
2023-02-28T02:08:31.757Z,5.97
2023-02-28T02:11:35.558Z,5.75
2023-02-28T02:14:44.814Z,5.72
2023-02-28T02:17:52.861Z,5.53
2023-02-28T02:21:25.882Z,5.05
2023-02-28T02:24:56.984Z,5.65
2023-02-28T02:28:23.477Z,6.03
2023-02-28T02:32:10.282Z,5.28
2023-02-28T02:35:34.995Z,5.78
2023-02-28T02:38:47.121Z,5.50
2023-02-28T02:41:54.619Z,5.40
2023-02-28T02:45:08.443Z,6.65
2023-02-28T02:48:16.880Z,7.07
2023-02-28T02:51:23.054Z,5.95
2023-02-28T02:54:29.897Z,6.82
2023-02-28T02:57:53.772Z,5.43
2023-02-28T03:01:00.744Z,6.13
2023-02-28T03:04:07.972Z,6.40
2023-02-28T03:07:10.703Z,6.50
2023-02-28T03:10:36.687Z,6.15
2023-02-28T03:13:44.048Z,6.22
2023-02-28T03:17:05.054Z,5.83
2023-02-28T03:20:19.218Z,6.13
2023-02-28T03:23:35.917Z,5.95
2023-02-28T03:26:46.518Z,7.00
2023-02-28T03:30:04.462Z,5.70
2023-02-28T03:33:38.056Z,6.47
2023-02-28T03:36:47.062Z,4.85
2023-02-28T03:39:57.674Z,6.55
2023-02-28T03:43:09.482Z,6.93
2023-02-28T03:46:16.164Z,6.65
2023-02-28T03:49:26.015Z,6.68
2023-02-28T03:52:34.806Z,5.53
2023-02-28T03:55:43.914Z,5.43
2023-02-28T03:58:58.273Z,5.90
2023-02-28T04:02:00.894Z,6.55
2023-02-28T04:05:03.159Z,5.75
2023-02-28T04:08:09.269Z,6.90
2023-02-28T04:11:19.837Z,6.28
2023-02-28T04:14:21.822Z,6.15
2023-02-28T04:17:23.888Z,6.63
2023-02-28T04:20:25.940Z,7.55
2023-02-28T04:23:27.871Z,7.18
2023-02-28T04:26:34.741Z,7.10
2023-02-28T04:29:37.099Z,7.13
2023-02-28T04:32:39.195Z,7.50
2023-02-28T04:35:41.322Z,7.38
2023-02-28T04:38:43.309Z,5.68
2023-02-28T04:41:46.549Z,7.40
2023-02-28T04:44:48.582Z,7.20
2023-02-28T04:47:50.811Z,6.25
2023-02-28T04:50:53.290Z,6.63
2023-02-28T04:53:56.075Z,6.80
2023-02-28T04:56:58.607Z,6.75
2023-02-28T05:00:00.974Z,6.10
2023-02-28T05:03:03.201Z,6.60
2023-02-28T05:06:05.452Z,6.93
2023-02-28T05:09:07.447Z,6.93
2023-02-28T05:12:10.864Z,7.07
2023-02-28T05:15:15.141Z,7.18
2023-02-28T05:18:17.196Z,6.53
2023-02-28T05:21:32.323Z,7.13
2023-02-28T05:24:34.490Z,8.02
2023-02-28T05:27:36.439Z,5.68
2023-02-28T05:30:38.487Z,6.07
2023-02-28T05:33:42.034Z,6.70
2023-02-28T05:36:44.279Z,5.75
2023-02-28T05:39:46.335Z,5.68
2023-02-28T05:42:50.994Z,5.90
2023-02-28T05:45:53.510Z,6.40
2023-02-28T05:48:57.276Z,6.15
2023-02-28T05:51:59.617Z,5.65
2023-02-28T05:55:01.773Z,4.85
2023-02-28T05:58:04.002Z,5.40
2023-02-28T06:01:33.784Z,4.68
2023-02-28T06:04:36.149Z,4.72
2023-02-28T06:07:38.086Z,4.65
2023-02-28T06:10:40.286Z,4.45
2023-02-28T06:13:42.813Z,4.20
2023-02-28T06:16:45.295Z,4.57
2023-02-28T06:19:49.096Z,5.07
2023-02-28T06:22:55.570Z,5.55
2023-02-28T06:26:00.590Z,5.75
2023-02-28T06:29:02.659Z,5.75
2023-02-28T06:32:04.830Z,4.85
2023-02-28T06:35:07.265Z,5.05
2023-02-28T06:38:09.270Z,5.18
2023-02-28T06:41:11.909Z,5.03
2023-02-28T06:44:18.245Z,4.82
2023-02-28T06:47:20.386Z,5.47
2023-02-28T06:50:24.910Z,4.60
2023-02-28T06:53:26.972Z,5.65
2023-02-28T06:56:29.132Z,5.53
2023-02-28T06:59:31.296Z,6.13
2023-02-28T07:02:33.575Z,6.20
2023-02-28T07:05:39.640Z,7.00
2023-02-28T07:08:42.912Z,7.40
2023-02-28T07:11:44.966Z,6.65
2023-02-28T07:14:46.986Z,6.82
2023-02-28T07:17:49.228Z,6.78
2023-02-28T07:20:51.633Z,5.97
2023-02-28T07:23:53.694Z,7.07
2023-02-28T07:26:56.344Z,6.45
2023-02-28T07:29:58.387Z,6.25
2023-02-28T07:33:00.386Z,5.88
2023-02-28T07:36:10.694Z,7.43
2023-02-28T07:39:12.747Z,6.47
2023-02-28T07:42:14.735Z,7.20
2023-02-28T07:45:16.703Z,6.97
2023-02-28T07:48:18.708Z,5.63
2023-02-28T07:51:20.818Z,6.30
2023-02-28T07:54:22.792Z,6.22
2023-02-28T07:57:25.242Z,6.43
2023-02-28T08:00:27.383Z,5.72
2023-02-28T08:03:29.418Z,5.68
2023-02-28T08:06:31.316Z,5.53
2023-02-28T08:09:33.549Z,5.75
2023-02-28T08:12:35.482Z,5.70
2023-02-28T08:15:37.526Z,6.07
2023-02-28T08:18:39.565Z,6.50
2023-02-28T08:21:41.504Z,7.32
2023-02-28T08:24:44.734Z,6.95
2023-02-28T08:27:47.075Z,8.45
2023-02-28T08:30:50.046Z,7.45
2023-02-28T08:33:53.901Z,6.93
2023-02-28T08:36:56.743Z,7.43
2023-02-28T08:39:58.778Z,6.43
2023-02-28T08:43:18.233Z,5.47
2023-02-28T08:46:25.485Z,6.20
2023-02-28T08:49:27.765Z,5.80
2023-02-28T08:52:29.862Z,6.22
2023-02-28T08:55:31.916Z,5.85
2023-02-28T08:58:35.498Z,5.80
2023-02-28T09:01:37.953Z,5.65
2023-02-28T09:04:40.063Z,5.63
2023-02-28T09:07:42.148Z,5.93
2023-02-28T09:10:44.166Z,6.35
2023-02-28T09:13:46.860Z,5.93
2023-02-28T09:16:49.051Z,6.15
2023-02-28T09:19:51.162Z,6.13
2023-02-28T09:22:53.210Z,5.75
2023-02-28T09:25:56.127Z,4.78
2023-02-28T09:28:59.998Z,5.57
2023-02-28T09:32:03.007Z,5.35
2023-02-28T09:35:05.909Z,5.07
2023-02-28T09:38:11.251Z,5.35
2023-02-28T09:41:20.151Z,5.10
2023-02-28T09:44:32.816Z,5.72
2023-02-28T09:47:40.738Z,4.25
2023-02-28T09:51:01.828Z,6.15
2023-02-28T09:54:04.164Z,6.30
2023-02-28T09:57:08.748Z,5.82
2023-02-28T10:00:26.119Z,5.10
2023-02-28T10:03:41.263Z,5.88
2023-02-28T10:06:51.422Z,6.53
2023-02-28T10:09:57.580Z,5.00
2023-02-28T10:13:05.738Z,5.20
2023-02-28T10:16:44.716Z,5.35
2023-02-28T10:20:20.983Z,5.57
2023-02-28T10:23:29.369Z,5.55
2023-02-28T10:26:33.658Z,6.63
2023-02-28T10:29:37.134Z,6.07
2023-02-28T10:32:41.243Z,5.45
2023-02-28T10:35:43.499Z,5.57
2023-02-28T10:38:47.041Z,5.65
2023-02-28T10:41:49.097Z,4.78
2023-02-28T10:45:05.178Z,6.07
2023-02-28T10:48:10.263Z,5.75
2023-02-28T10:51:15.487Z,5.63
2023-02-28T10:54:22.998Z,5.57
2023-02-28T10:57:25.686Z,5.40
2023-02-28T11:00:34.965Z,5.32
2023-02-28T11:03:36.998Z,6.15
2023-02-28T11:06:40.679Z,5.05
2023-02-28T11:09:44.758Z,5.20
2023-02-28T11:12:52.680Z,5.32
2023-02-28T11:16:01.195Z,5.25
2023-02-28T11:19:07.810Z,4.38
2023-02-28T11:22:12.044Z,4.82
2023-02-28T11:25:25.414Z,4.70
2023-02-28T11:28:36.735Z,4.60
2023-02-28T11:31:38.755Z,4.97
2023-02-28T11:34:42.212Z,4.22
2023-02-28T11:37:46.895Z,4.03
2023-02-28T11:40:58.579Z,4.45
2023-02-28T11:44:06.548Z,6.03
2023-02-28T11:47:46.575Z,4.10
2023-02-28T11:50:48.701Z,4.68
2023-02-28T11:53:56.748Z,4.45
2023-02-28T11:57:04.421Z,5.50
2023-02-28T12:00:31.367Z,5.37
2023-02-28T12:03:52.062Z,5.07
2023-02-28T12:07:12.943Z,6.43
2023-02-28T12:10:15.171Z,4.60
2023-02-28T12:13:20.484Z,5.95
2023-02-28T12:16:48.670Z,5.30
2023-02-28T12:20:18.331Z,5.50
2023-02-28T12:23:32.426Z,5.85
2023-02-28T12:26:43.831Z,5.65
2023-02-28T12:30:00.300Z,5.63
2023-02-28T12:33:09.487Z,6.22
2023-02-28T12:36:18.491Z,5.93
2023-02-28T12:39:49.757Z,6.05
2023-02-28T12:42:59.423Z,5.53
2023-02-28T12:46:09.636Z,7.00
2023-02-28T12:49:20.546Z,7.55
2023-02-28T12:52:47.659Z,7.28
2023-02-28T12:56:19.792Z,5.43
2023-02-28T12:59:24.661Z,5.80
2023-02-28T13:02:45.367Z,5.82
2023-02-28T13:06:04.608Z,6.40
2023-02-28T13:12:16.512Z,5.95
2023-02-28T13:15:29.679Z,6.25
2023-02-28T13:18:40.763Z,6.88
2023-02-28T13:21:45.915Z,6.47
2023-02-28T13:24:50.748Z,6.68
2023-02-28T13:28:02.113Z,6.50
2023-02-28T13:31:06.562Z,6.22
2023-02-28T13:34:17.096Z,6.40
2023-02-28T13:37:18.964Z,6.50
2023-02-28T13:40:38.271Z,5.97
2023-02-28T13:44:13.225Z,6.10
2023-02-28T13:47:23.383Z,5.30
2023-02-28T13:50:28.073Z,5.82
2023-02-28T13:54:00.342Z,6.20
2023-02-28T13:57:21.113Z,5.80
2023-02-28T14:00:32.747Z,6.10
2023-02-28T14:03:53.392Z,5.80
2023-02-28T14:06:58.351Z,6.25
2023-02-28T14:10:06.719Z,5.78
2023-02-28T14:13:45.752Z,6.40
2023-02-28T14:16:52.332Z,6.53
2023-02-28T14:19:54.613Z,7.32
2023-02-28T14:23:31.359Z,6.60
2023-02-28T14:26:55.046Z,5.60
2023-02-28T14:30:08.160Z,6.82
2023-02-28T14:33:35.852Z,6.82
2023-02-28T14:36:44.573Z,5.78
2023-02-28T14:39:50.662Z,6.72
2023-02-28T14:43:04.964Z,7.13
2023-02-28T14:46:08.391Z,5.00
2023-02-28T14:49:25.895Z,6.10
2023-02-28T14:52:30.856Z,6.57
2023-02-28T14:55:36.275Z,6.85
2023-02-28T14:58:38.657Z,6.70
2023-02-28T15:01:40.643Z,6.30
2023-02-28T15:04:43.190Z,6.88
2023-02-28T15:07:46.730Z,6.55
2023-02-28T15:11:09.089Z,7.68
2023-02-28T15:14:19.047Z,7.10
2023-02-28T15:17:28.796Z,5.85
2023-02-28T15:20:30.883Z,6.88
2023-02-28T15:23:35.348Z,6.93
2023-02-28T15:26:42.057Z,5.93
2023-02-28T15:29:52.531Z,6.93
2023-02-28T15:33:13.117Z,5.45
2023-02-28T15:36:22.003Z,5.57
2023-02-28T15:39:28.237Z,5.80
2023-02-28T15:42:30.983Z,6.82
2023-02-28T15:45:45.643Z,6.88
2023-02-28T15:48:57.152Z,7.70
2023-02-28T15:52:01.737Z,7.18
2023-02-28T15:55:13.966Z,6.72
2023-02-28T15:58:16.238Z,7.13
2023-02-28T16:01:35.060Z,6.55
2023-02-28T16:04:38.212Z,6.63
2023-02-28T16:07:43.195Z,7.28
2023-02-28T16:10:45.566Z,6.50
2023-02-28T16:13:47.774Z,8.45
2023-02-28T16:16:54.515Z,7.63
2023-02-28T16:19:57.208Z,8.05
2023-02-28T16:23:02.553Z,7.70
2023-02-28T16:26:06.605Z,8.95
2023-02-28T16:29:11.720Z,9.07
2023-02-28T16:32:16.749Z,9.65
2023-02-28T16:35:20.322Z,8.63
2023-02-28T16:38:24.804Z,9.48
2023-02-28T16:41:29.643Z,9.80
2023-02-28T16:44:36.870Z,7.43
2023-02-28T16:47:39.905Z,7.18
2023-02-28T16:50:42.636Z,9.77
2023-02-28T16:53:46.460Z,10.55
2023-02-28T16:56:52.113Z,10.82
2023-02-28T16:59:56.786Z,10.57
2023-02-28T17:03:01.097Z,12.20
2023-02-28T17:06:03.910Z,9.90
2023-02-28T17:09:05.958Z,9.88
2023-02-28T17:12:09.430Z,10.23
2023-02-28T17:15:13.291Z,10.70
2023-02-28T17:18:20.014Z,11.57
2023-02-28T17:21:22.129Z,12.65
2023-02-28T17:24:30.870Z,10.88
2023-02-28T17:27:36.728Z,9.35
2023-02-28T17:30:39.150Z,9.93
2023-02-28T17:33:42.196Z,10.20
2023-02-28T17:36:44.757Z,10.52
2023-02-28T17:39:47.237Z,9.93
2023-02-28T17:43:32.496Z,10.23
2023-02-28T17:46:34.939Z,10.35
2023-02-28T17:49:43.346Z,9.35
2023-02-28T17:52:45.432Z,10.73
2023-02-28T17:55:52.710Z,11.70
2023-02-28T17:58:57.272Z,10.23
2023-02-28T18:02:02.213Z,10.70
2023-02-28T18:05:06.640Z,10.75
2023-02-28T18:08:11.659Z,9.68
2023-02-28T18:11:22.152Z,10.52
2023-02-28T18:14:26.605Z,11.35
2023-02-28T18:17:31.313Z,10.18
2023-02-28T18:20:37.681Z,10.88
2023-02-28T18:23:47.781Z,13.80
2023-02-28T18:26:49.754Z,12.27
2023-02-28T18:29:52.904Z,13.18
2023-02-28T18:32:54.890Z,13.02
2023-02-28T18:35:57.939Z,10.75
2023-02-28T18:39:00.069Z,11.70
2023-02-28T18:42:02.325Z,11.52
2023-02-28T18:45:05.013Z,11.73
2023-02-28T18:48:09.494Z,11.80
2023-02-28T18:51:20.144Z,12.20
2023-02-28T18:54:22.588Z,13.13
2023-02-28T18:57:25.067Z,11.65
2023-02-28T19:00:27.310Z,11.60
2023-02-28T19:03:31.945Z,10.85
2023-02-28T19:06:35.107Z,11.10
2023-02-28T19:09:37.235Z,10.63
2023-02-28T19:12:40.063Z,10.60
2023-02-28T19:15:42.171Z,10.98
2023-02-28T19:18:44.871Z,11.18
2023-02-28T19:21:47.053Z,13.30
2023-02-28T19:24:51.128Z,11.30
2023-02-28T19:27:54.851Z,11.45
2023-02-28T19:30:59.591Z,11.30
2023-02-28T19:34:02.105Z,12.25
2023-02-28T19:37:04.475Z,12.90
2023-02-28T19:40:11.239Z,9.70
2023-02-28T19:43:14.886Z,11.40
2023-02-28T19:46:17.478Z,12.02
2023-02-28T19:49:19.501Z,10.20
2023-02-28T19:52:22.645Z,10.88
2023-02-28T19:55:25.039Z,11.02
2023-02-28T19:58:29.140Z,10.05
2023-02-28T20:01:31.348Z,11.55
2023-02-28T20:04:33.424Z,9.57
2023-02-28T20:07:35.827Z,6.72
2023-02-28T20:10:40.828Z,11.07
2023-02-28T20:13:43.437Z,10.68
2023-02-28T20:16:46.168Z,10.95
2023-02-28T20:19:48.633Z,11.20
2023-02-28T20:22:51.527Z,11.68
2023-02-28T20:25:54.317Z,11.60
2023-02-28T20:28:56.991Z,10.48
2023-02-28T20:31:59.471Z,10.80
2023-02-28T20:35:01.565Z,12.00
2023-02-28T20:38:03.596Z,10.60
2023-02-28T20:41:47.780Z,12.60
2023-02-28T20:44:50.162Z,10.52
2023-02-28T20:47:52.393Z,11.05
2023-02-28T20:50:59.945Z,11.05
2023-02-28T20:54:04.556Z,12.50
2023-02-28T20:57:08.091Z,12.25
2023-02-28T21:00:16.460Z,11.77
2023-02-28T21:03:18.522Z,11.68
2023-02-28T21:06:23.414Z,10.77
2023-02-28T21:09:25.481Z,10.32
2023-02-28T21:12:27.772Z,11.55
2023-02-28T21:15:30.066Z,10.60
2023-02-28T21:18:35.036Z,11.02
2023-02-28T21:21:40.169Z,10.93
2023-02-28T21:24:45.137Z,10.18
2023-02-28T21:27:48.586Z,9.60
2023-02-28T21:30:50.960Z,9.45
2023-02-28T21:33:54.835Z,11.15
2023-02-28T21:36:57.093Z,11.40
2023-02-28T21:39:59.196Z,11.23
2023-02-28T21:43:01.270Z,9.70
2023-02-28T21:46:06.573Z,10.35
2023-02-28T21:49:08.863Z,9.45
2023-02-28T21:52:11.719Z,11.07
2023-02-28T21:55:13.780Z,10.40
2023-02-28T21:58:16.292Z,10.02
2023-02-28T22:01:21.520Z,9.85
2023-02-28T22:04:23.851Z,9.02
2023-02-28T22:07:26.063Z,8.98
2023-02-28T22:10:28.016Z,9.98
2023-02-28T22:13:30.385Z,9.45
2023-02-28T22:16:49.566Z,10.05
2023-02-28T22:19:53.046Z,10.70
2023-02-28T22:22:55.354Z,9.98
2023-02-28T22:26:00.261Z,10.88
2023-02-28T22:29:02.375Z,10.27
2023-02-28T22:32:04.678Z,10.77
2023-02-28T22:35:07.964Z,10.32
2023-02-28T22:38:11.163Z,9.95
2023-02-28T22:41:14.285Z,10.38
2023-02-28T22:44:16.638Z,10.23
2023-02-28T22:47:18.977Z,10.15
2023-02-28T22:50:21.042Z,9.90
2023-02-28T22:53:23.057Z,10.88
2023-02-28T22:56:27.407Z,10.43
2023-02-28T22:59:30.445Z,10.32
2023-02-28T23:02:33.179Z,10.73
2023-02-28T23:05:35.202Z,8.77
2023-02-28T23:08:37.276Z,10.98
2023-02-28T23:11:44.980Z,9.63
2023-02-28T23:14:47.057Z,9.67
2023-02-28T23:17:50.614Z,8.45
2023-02-28T23:20:52.670Z,8.88
2023-02-28T23:23:54.977Z,8.85
2023-02-28T23:26:59.318Z,9.40
2023-02-28T23:30:03.123Z,9.48
2023-02-28T23:33:06.876Z,8.55
2023-02-28T23:36:15.999Z,8.80
2023-02-28T23:39:19.171Z,8.75
2023-02-28T23:42:21.274Z,9.00
2023-02-28T23:45:23.458Z,9.10
2023-02-28T23:48:25.412Z,9.30
2023-02-28T23:51:27.418Z,8.85
2023-02-28T23:54:29.943Z,8.63
2023-02-28T23:57:31.942Z,9.13
